Terminal Aerodrome Forecast
Issued by NWS Buffalo, NY

Home | Current Version | Previous Version | Text Only | Print | Product List | Glossary On
Versions: 1 2 3 4 5 6 7 8 9 10 11 12 13 14 15 16 17 18 19 20 21 22 23 24 25
000
FTUS41 KBUF 231700
TAFBUF
TAF
KBUF 231735Z 2318/2418 18009KT P6SM -RA SCT015 OVC035
     FM232000 16008KT P6SM OVC050
     FM240200 15012KT P6SM OVC100 WS020/18045KT
     FM240800 16019KT 6SM -RA OVC045 WS020/18050KT
     FM241100 18020G30KT P6SM -RA OVC040 WS020/19050KT
     FM241500 20019G36KT P6SM BKN030=

USA.gov is the U.S. government's official web portal to all federal, state and local government web resources and services.